createdAt,value
2022-12-08T00:02:15.470Z,22.67
2022-12-08T00:05:04.870Z,26.10
2022-12-08T00:07:54.274Z,25.25
2022-12-08T00:10:48.472Z,22.05
2022-12-08T00:13:19.192Z,23.35
2022-12-08T00:15:50.070Z,25.88
2022-12-08T00:18:20.821Z,24.40
2022-12-08T00:20:57.318Z,31.55
2022-12-08T00:23:28.260Z,25.30
2022-12-08T00:26:02.556Z,28.00
2022-12-08T00:28:34.472Z,26.58
2022-12-08T00:31:12.079Z,23.10
2022-12-08T00:33:42.451Z,30.67
2022-12-08T00:36:15.310Z,30.63
2022-12-08T00:38:46.037Z,26.38
2022-12-08T00:41:40.732Z,17.40
2022-12-08T00:44:16.446Z,26.15
2022-12-08T00:46:47.374Z,19.80
2022-12-08T00:49:19.259Z,23.33
2022-12-08T00:51:50.063Z,12.15
2022-12-08T00:54:22.195Z,9.43
2022-12-08T00:56:53.031Z,15.27
2022-12-08T00:59:23.875Z,19.38
2022-12-08T01:01:54.195Z,15.30
2022-12-08T01:04:25.129Z,17.52
2022-12-08T01:06:56.471Z,17.50
2022-12-08T01:09:27.313Z,15.45
2022-12-08T01:11:57.878Z,16.25
2022-12-08T01:14:28.967Z,14.98
2022-12-08T01:16:59.248Z,17.75
2022-12-08T01:19:31.836Z,17.13
2022-12-08T01:22:02.513Z,18.08
2022-12-08T01:24:33.568Z,16.67
2022-12-08T01:27:04.282Z,19.80
2022-12-08T01:29:35.491Z,20.30
2022-12-08T01:32:05.641Z,19.98
2022-12-08T01:34:36.615Z,16.02
2022-12-08T01:37:07.437Z,22.92
2022-12-08T01:39:38.204Z,22.17
2022-12-08T01:42:24.317Z,17.92
2022-12-08T01:44:58.780Z,20.50
2022-12-08T01:47:38.065Z,32.33
2022-12-08T01:50:11.895Z,28.70
2022-12-08T01:52:47.800Z,25.90
2022-12-08T01:55:26.675Z,25.02
2022-12-08T01:58:24.670Z,26.58
2022-12-08T02:00:55.925Z,26.73
2022-12-08T02:03:31.124Z,30.83
2022-12-08T02:06:01.790Z,35.65
2022-12-08T02:08:32.921Z,23.65
2022-12-08T02:11:03.750Z,28.67
2022-12-08T02:13:34.588Z,32.47
2022-12-08T02:16:22.694Z,42.78
2022-12-08T02:19:34.032Z,33.15
2022-12-08T02:22:08.711Z,43.63
2022-12-08T02:24:47.485Z,35.80
2022-12-08T02:27:45.616Z,38.22
2022-12-08T02:30:48.835Z,31.13
2022-12-08T02:34:13.836Z,31.50
2022-12-08T02:37:02.101Z,39.55
2022-12-08T02:39:47.064Z,38.10
2022-12-08T02:42:32.361Z,42.22
2022-12-08T02:45:23.807Z,34.88
2022-12-08T02:47:54.705Z,40.45
2022-12-08T02:50:25.404Z,46.30
2022-12-08T02:52:56.082Z,38.30
2022-12-08T02:55:34.320Z,39.35
2022-12-08T02:58:31.642Z,33.30
2022-12-08T03:01:29.956Z,29.17
2022-12-08T03:04:22.977Z,32.65
2022-12-08T03:07:05.000Z,28.75
2022-12-08T03:09:36.109Z,30.30
2022-12-08T03:12:24.681Z,25.35
2022-12-08T03:14:57.680Z,38.13
2022-12-08T03:17:31.149Z,26.52
2022-12-08T03:20:05.985Z,31.23
2022-12-08T03:22:36.716Z,21.15
2022-12-08T03:25:08.257Z,28.65
2022-12-08T03:27:39.654Z,28.45
2022-12-08T03:30:10.663Z,27.88
2022-12-08T03:32:49.772Z,27.20
2022-12-08T03:35:24.396Z,25.70
2022-12-08T03:38:04.408Z,31.08
2022-12-08T03:40:35.260Z,24.48
2022-12-08T03:43:05.598Z,20.38
2022-12-08T03:45:36.544Z,19.58
2022-12-08T03:48:07.398Z,22.00
2022-12-08T03:50:38.649Z,25.95
2022-12-08T03:53:09.331Z,19.17
2022-12-08T03:55:39.871Z,28.83
2022-12-08T03:58:10.401Z,22.77
2022-12-08T04:00:44.391Z,22.90
2022-12-08T04:03:14.811Z,15.55
2022-12-08T04:05:45.460Z,12.15
2022-12-08T04:08:19.417Z,17.13
2022-12-08T04:10:50.321Z,10.25
2022-12-08T04:13:20.604Z,10.18
2022-12-08T04:15:51.823Z,8.98
2022-12-08T04:18:22.367Z,6.75
2022-12-08T04:20:52.626Z,9.40
2022-12-08T04:23:23.099Z,10.80
2022-12-08T04:25:54.441Z,8.73
2022-12-08T04:28:25.736Z,10.82
2022-12-08T04:31:00.715Z,9.10
2022-12-08T04:33:32.277Z,13.55
2022-12-08T04:36:07.559Z,11.00
2022-12-08T04:38:37.838Z,8.20
2022-12-08T04:41:08.566Z,12.65
2022-12-08T04:43:38.809Z,8.73
2022-12-08T04:46:13.526Z,7.28
2022-12-08T04:48:47.164Z,3.67
2022-12-08T04:51:20.596Z,4.53
2022-12-08T04:53:51.419Z,8.55
2022-12-08T04:56:22.054Z,4.95
2022-12-08T04:58:55.218Z,5.97
2022-12-08T05:01:26.390Z,17.48
2022-12-08T05:03:57.285Z,6.47
2022-12-08T05:06:28.455Z,5.22
2022-12-08T05:08:59.541Z,4.18
2022-12-08T05:11:30.223Z,6.03
2022-12-08T05:14:01.011Z,4.10
2022-12-08T05:16:32.836Z,4.80
2022-12-08T05:19:03.442Z,7.43
2022-12-08T05:21:33.861Z,9.98
2022-12-08T05:24:08.144Z,7.78
2022-12-08T05:26:39.442Z,4.68
2022-12-08T05:29:09.771Z,6.22
2022-12-08T05:31:40.055Z,7.00
2022-12-08T05:34:10.625Z,5.63
2022-12-08T05:36:41.355Z,7.68
2022-12-08T05:39:16.174Z,5.30
2022-12-08T05:41:46.468Z,14.13
2022-12-08T05:44:17.145Z,11.27
2022-12-08T05:46:47.461Z,5.70
2022-12-08T05:49:18.400Z,10.63
2022-12-08T05:51:48.976Z,9.15
2022-12-08T05:54:19.790Z,12.63
2022-12-08T05:56:50.646Z,8.65
2022-12-08T05:59:24.279Z,10.02
2022-12-08T06:01:55.349Z,7.55
2022-12-08T06:04:25.802Z,14.52
2022-12-08T06:06:56.634Z,7.13
2022-12-08T06:09:26.985Z,12.30
2022-12-08T06:12:01.981Z,5.78
2022-12-08T06:14:36.413Z,8.32
2022-12-08T06:17:06.818Z,4.95
2022-12-08T06:19:37.791Z,14.00
2022-12-08T06:22:08.281Z,9.35
2022-12-08T06:24:38.989Z,6.07
2022-12-08T06:27:09.311Z,10.88
2022-12-08T06:29:40.034Z,5.50
2022-12-08T06:32:10.605Z,6.10
2022-12-08T06:34:41.259Z,5.60
2022-12-08T06:37:12.163Z,16.48
2022-12-08T06:39:42.481Z,20.63
2022-12-08T06:42:31.328Z,31.48
2022-12-08T06:45:01.842Z,28.00
2022-12-08T06:47:32.847Z,27.40
2022-12-08T06:50:04.225Z,25.33
2022-12-08T06:52:40.869Z,27.30
2022-12-08T06:55:35.315Z,28.33
2022-12-08T06:58:07.587Z,26.80
2022-12-08T07:00:38.146Z,23.85
2022-12-08T07:03:10.126Z,27.27
2022-12-08T07:05:40.884Z,28.55
2022-12-08T07:08:11.701Z,26.05
2022-12-08T07:10:42.971Z,24.95
2022-12-08T07:13:13.573Z,23.88
2022-12-08T07:15:44.686Z,31.00
2022-12-08T07:18:15.328Z,29.83
2022-12-08T07:20:46.239Z,22.33
2022-12-08T07:23:16.630Z,20.70
2022-12-08T07:25:47.600Z,21.42
2022-12-08T07:28:17.878Z,32.67
2022-12-08T07:30:48.451Z,26.33
2022-12-08T07:33:19.372Z,22.23
2022-12-08T07:36:00.250Z,24.13
2022-12-08T07:38:31.517Z,24.35
2022-12-08T07:41:02.796Z,34.22
2022-12-08T07:43:33.981Z,35.85
2022-12-08T07:46:04.386Z,31.10
2022-12-08T07:48:35.000Z,32.13
2022-12-08T07:51:06.801Z,25.98
2022-12-08T07:53:37.298Z,25.98
2022-12-08T07:56:08.874Z,22.70
2022-12-08T07:58:39.758Z,25.13
2022-12-08T08:01:30.513Z,20.77
2022-12-08T08:04:03.262Z,27.60
2022-12-08T08:06:35.629Z,35.55
2022-12-08T08:09:37.718Z,30.95
2022-12-08T08:12:30.215Z,25.75
2022-12-08T08:14:58.992Z,36.35
2022-12-08T08:17:30.595Z,29.27
2022-12-08T08:20:01.862Z,22.23
2022-12-08T08:22:32.852Z,26.23
2022-12-08T08:25:03.918Z,31.15
2022-12-08T08:27:34.237Z,37.88
2022-12-08T08:30:07.102Z,29.90
2022-12-08T08:32:38.220Z,26.80
2022-12-08T08:35:10.449Z,30.23
2022-12-08T08:37:45.594Z,25.83
2022-12-08T08:40:20.902Z,32.80
2022-12-08T08:42:53.728Z,26.83
2022-12-08T08:45:24.459Z,20.45
2022-12-08T08:47:55.114Z,16.15
2022-12-08T08:50:25.620Z,11.57
2022-12-08T08:52:55.916Z,19.95
2022-12-08T08:55:26.681Z,8.88
2022-12-08T08:57:57.145Z,11.57
2022-12-08T09:00:28.908Z,13.40
2022-12-08T09:02:59.514Z,9.40
2022-12-08T09:05:30.288Z,14.00
2022-12-08T09:08:00.564Z,19.85
2022-12-08T09:10:31.261Z,15.00
2022-12-08T09:13:01.511Z,13.57
2022-12-08T09:15:32.903Z,11.63
2022-12-08T09:18:03.336Z,12.45
2022-12-08T09:20:34.946Z,15.35
2022-12-08T09:23:05.612Z,17.15
2022-12-08T09:25:36.094Z,37.13
2022-12-08T09:28:06.457Z,25.23
2022-12-08T09:30:37.008Z,15.15
2022-12-08T09:33:07.530Z,21.90
2022-12-08T09:35:37.909Z,20.52
2022-12-08T09:38:14.271Z,17.10
2022-12-08T09:40:51.081Z,15.82
2022-12-08T09:43:42.136Z,18.98
2022-12-08T09:46:15.849Z,14.43
2022-12-08T09:48:56.795Z,20.92
2022-12-08T09:51:32.988Z,24.48
2022-12-08T09:54:17.329Z,13.73
2022-12-08T09:56:47.994Z,17.95
2022-12-08T09:59:32.428Z,15.70
2022-12-08T10:02:03.864Z,21.23
2022-12-08T10:04:39.180Z,14.07
2022-12-08T10:07:23.098Z,14.48
2022-12-08T10:10:14.441Z,18.00
2022-12-08T10:13:04.796Z,19.80
2022-12-08T10:15:48.430Z,14.73
2022-12-08T10:18:27.226Z,21.88
2022-12-08T10:21:23.201Z,16.13
2022-12-08T10:23:58.066Z,28.52
2022-12-08T10:26:33.535Z,31.48
2022-12-08T10:29:08.017Z,18.65
2022-12-08T10:31:38.772Z,28.08
2022-12-08T10:34:35.164Z,24.92
2022-12-08T10:37:11.299Z,22.20
2022-12-08T10:39:46.726Z,16.58
2022-12-08T10:42:22.510Z,18.48
2022-12-08T10:45:16.638Z,16.58
2022-12-08T10:47:57.573Z,19.85
2022-12-08T10:50:31.283Z,20.33
2022-12-08T10:53:11.333Z,18.27
2022-12-08T10:56:05.143Z,14.23
2022-12-08T10:58:45.952Z,23.83
2022-12-08T11:01:26.081Z,20.08
2022-12-08T11:03:57.764Z,24.42
2022-12-08T11:06:34.208Z,21.02
2022-12-08T11:09:24.935Z,19.77
2022-12-08T11:11:59.717Z,19.77
2022-12-08T11:14:33.602Z,26.40
2022-12-08T11:17:28.678Z,29.15
2022-12-08T11:20:23.887Z,24.30
2022-12-08T11:22:56.676Z,25.73
2022-12-08T11:25:31.300Z,24.88
2022-12-08T11:28:03.390Z,20.70
2022-12-08T11:30:43.248Z,59.63
2022-12-08T11:33:29.051Z,54.33
2022-12-08T11:36:08.701Z,50.42
2022-12-08T11:38:43.790Z,27.02
2022-12-08T11:41:24.330Z,30.65
2022-12-08T11:44:05.920Z,27.80
2022-12-08T11:46:40.511Z,26.63
2022-12-08T11:49:16.586Z,28.70
2022-12-08T11:51:56.299Z,28.85
2022-12-08T11:54:43.459Z,20.80
2022-12-08T11:57:21.797Z,16.85
2022-12-08T11:59:53.866Z,15.88
2022-12-08T12:02:30.897Z,30.30
2022-12-08T12:05:47.858Z,22.13
2022-12-08T12:08:46.422Z,17.15
2022-12-08T12:12:20.126Z,14.68
2022-12-08T12:15:20.896Z,14.80
2022-12-08T12:18:09.752Z,16.33
2022-12-08T12:21:07.197Z,16.48
2022-12-08T12:23:48.045Z,16.48
2022-12-08T12:26:31.019Z,15.40
2022-12-08T12:29:07.424Z,15.00
2022-12-08T12:31:44.109Z,18.45
2022-12-08T12:34:38.062Z,15.35
2022-12-08T12:37:15.312Z,16.67
2022-12-08T12:39:54.083Z,20.67
2022-12-08T12:42:43.143Z,16.40
2022-12-08T12:45:27.123Z,18.25
2022-12-08T12:47:57.647Z,22.80
2022-12-08T12:50:39.532Z,18.23
2022-12-08T12:53:23.830Z,19.73
2022-12-08T12:56:03.355Z,15.55
2022-12-08T12:58:33.688Z,16.10
2022-12-08T13:01:13.709Z,13.55
2022-12-08T13:03:46.912Z,15.88
2022-12-08T13:06:25.748Z,23.05
2022-12-08T13:08:58.013Z,19.27
2022-12-08T13:11:28.980Z,17.08
2022-12-08T13:14:04.777Z,18.92
2022-12-08T13:16:41.096Z,22.42
2022-12-08T13:19:17.917Z,21.10
2022-12-08T13:21:48.501Z,16.30
2022-12-08T13:24:34.574Z,18.27
2022-12-08T13:27:05.018Z,22.13
2022-12-08T13:29:38.181Z,17.58
2022-12-08T13:32:14.498Z,19.52
2022-12-08T13:34:53.955Z,20.15
2022-12-08T13:37:39.658Z,15.75
2022-12-08T13:40:18.181Z,12.98
2022-12-08T13:42:51.300Z,15.07
2022-12-08T13:46:12.227Z,13.20
2022-12-08T13:53:49.183Z,13.75
2022-12-08T13:55:49.758Z,15.15
2022-12-08T13:57:38.790Z,12.77
2022-12-08T14:00:17.545Z,16.27
2022-12-08T14:02:50.549Z,12.95
2022-12-08T14:05:40.823Z,15.02
2022-12-08T14:11:40.044Z,18.33
2022-12-08T14:15:00.672Z,20.45
2022-12-08T14:17:24.236Z,17.10
2022-12-08T14:20:00.401Z,19.23
2022-12-08T14:22:37.618Z,12.75
2022-12-08T14:25:12.774Z,13.82
2022-12-08T14:27:43.644Z,17.13
2022-12-08T14:30:17.284Z,13.13
2022-12-08T14:32:55.767Z,11.10
2022-12-08T14:35:37.909Z,14.57
2022-12-08T14:38:18.540Z,19.77
2022-12-08T14:40:51.179Z,19.13
2022-12-08T14:43:22.235Z,20.45
2022-12-08T14:45:54.322Z,14.18
2022-12-08T14:48:42.970Z,16.05
2022-12-08T14:51:23.059Z,18.02
2022-12-08T14:54:03.093Z,15.05
2022-12-08T14:56:37.880Z,17.35
2022-12-08T14:59:31.070Z,16.25
2022-12-08T15:02:26.650Z,20.98
2022-12-08T15:05:23.393Z,34.45
2022-12-08T15:07:56.182Z,29.08
2022-12-08T15:10:28.966Z,21.27
2022-12-08T15:13:21.924Z,20.52
2022-12-08T15:15:58.655Z,21.15
2022-12-08T15:18:37.888Z,16.25
2022-12-08T15:21:10.111Z,15.38
2022-12-08T15:23:50.474Z,16.45
2022-12-08T15:26:23.276Z,15.52
2022-12-08T15:28:54.327Z,14.32
2022-12-08T15:31:25.845Z,15.73
2022-12-08T15:33:56.712Z,20.38
2022-12-08T15:36:29.729Z,13.10
2022-12-08T15:39:00.202Z,13.77
2022-12-08T15:41:30.617Z,12.00
2022-12-08T15:44:01.678Z,13.98
2022-12-08T15:46:32.646Z,11.85
2022-12-08T15:49:03.646Z,13.30
2022-12-08T15:51:37.755Z,15.02
2022-12-08T15:54:08.068Z,12.57
2022-12-08T15:57:10.544Z,19.63
2022-12-08T15:59:34.405Z,34.20
2022-12-08T16:02:05.602Z,36.90
2022-12-08T16:05:25.176Z,35.17
2022-12-08T16:07:29.657Z,38.75
2022-12-08T16:09:59.948Z,39.78
2022-12-08T16:13:48.116Z,40.50
2022-12-08T16:15:55.133Z,34.63
2022-12-08T16:18:33.286Z,32.88
2022-12-08T16:23:54.774Z,28.38
2022-12-08T16:27:35.058Z,30.73
2022-12-08T16:29:22.414Z,27.23
2022-12-08T16:31:53.680Z,20.40
2022-12-08T16:34:23.957Z,24.27
2022-12-08T16:36:54.291Z,29.90
2022-12-08T16:39:25.587Z,33.22
2022-12-08T16:42:15.138Z,32.22
2022-12-08T16:44:45.717Z,31.35
2022-12-08T16:47:16.790Z,33.13
2022-12-08T16:49:47.706Z,40.30
2022-12-08T16:52:19.433Z,40.17
2022-12-08T16:54:50.524Z,31.80
2022-12-08T16:57:21.097Z,36.38
2022-12-08T16:59:52.658Z,44.78
2022-12-08T17:02:23.158Z,28.80
2022-12-08T17:04:53.640Z,38.67
2022-12-08T17:07:24.662Z,32.05
2022-12-08T17:09:55.001Z,31.05
2022-12-08T17:12:25.477Z,34.65
2022-12-08T17:14:55.821Z,26.83
2022-12-08T17:17:26.354Z,29.83
2022-12-08T17:20:09.256Z,28.77
2022-12-08T17:22:40.109Z,29.95
2022-12-08T17:25:11.075Z,26.55
2022-12-08T17:27:42.347Z,26.88
2022-12-08T17:30:16.481Z,25.45
2022-12-08T17:32:50.192Z,22.52
2022-12-08T17:35:20.927Z,29.25
2022-12-08T17:37:51.451Z,25.08
2022-12-08T17:40:23.651Z,24.10
2022-12-08T17:42:57.838Z,25.55
2022-12-08T17:45:28.136Z,23.13
2022-12-08T17:47:58.645Z,21.63
2022-12-08T17:50:29.296Z,24.13
2022-12-08T17:52:59.913Z,25.80
2022-12-08T17:55:31.010Z,26.05
2022-12-08T17:58:02.387Z,27.00
2022-12-08T18:00:33.740Z,30.13
2022-12-08T18:03:04.576Z,27.65
2022-12-08T18:05:36.263Z,28.42
2022-12-08T18:08:06.979Z,27.45
2022-12-08T18:10:37.478Z,29.42
2022-12-08T18:13:10.393Z,24.45
2022-12-08T18:15:41.023Z,27.70
2022-12-08T18:18:11.324Z,28.13
2022-12-08T18:20:42.299Z,29.45
2022-12-08T18:23:12.625Z,23.88
2022-12-08T18:25:42.682Z,27.90
2022-12-08T18:28:12.935Z,20.70
2022-12-08T18:30:43.467Z,29.95
2022-12-08T18:33:13.755Z,30.63
2022-12-08T18:35:44.242Z,24.65
2022-12-08T18:38:14.790Z,21.55
2022-12-08T18:40:44.896Z,26.48
2022-12-08T18:43:15.978Z,25.20
2022-12-08T18:45:46.845Z,22.80
2022-12-08T18:48:17.695Z,24.45
2022-12-08T18:50:49.714Z,27.45
2022-12-08T18:53:20.358Z,23.45
2022-12-08T18:55:51.939Z,20.98
2022-12-08T18:58:22.962Z,21.77
2022-12-08T19:00:53.736Z,18.70
2022-12-08T19:03:24.510Z,24.75
2022-12-08T19:06:08.162Z,29.63
2022-12-08T19:08:38.764Z,25.13
2022-12-08T19:11:25.138Z,27.38
2022-12-08T19:13:56.483Z,26.83
2022-12-08T19:16:26.973Z,22.13
2022-12-08T19:18:58.127Z,20.58
2022-12-08T19:21:28.662Z,29.38
2022-12-08T19:23:59.607Z,23.05
2022-12-08T19:26:30.520Z,25.23
2022-12-08T19:29:01.094Z,23.65
2022-12-08T19:31:31.389Z,25.35
2022-12-08T19:34:02.025Z,23.90
2022-12-08T19:36:36.338Z,20.98
2022-12-08T19:39:25.399Z,21.08
2022-12-08T19:42:14.165Z,23.63
2022-12-08T19:44:54.033Z,33.08
2022-12-08T19:47:26.358Z,28.77
2022-12-08T19:50:17.254Z,28.05
2022-12-08T19:52:47.793Z,26.02
2022-12-08T19:55:18.643Z,28.42
2022-12-08T19:57:49.227Z,24.40
2022-12-08T20:00:20.901Z,29.52
2022-12-08T20:02:52.623Z,25.00
2022-12-08T20:05:24.331Z,27.98
2022-12-08T20:07:56.653Z,24.90
2022-12-08T20:10:29.774Z,20.70
2022-12-08T20:13:18.295Z,28.92
2022-12-08T20:15:48.874Z,23.15
2022-12-08T20:18:20.053Z,25.15
2022-12-08T20:20:50.674Z,26.88
2022-12-08T20:23:21.178Z,22.65
2022-12-08T20:25:53.740Z,21.88
2022-12-08T20:28:24.773Z,20.85
2022-12-08T20:30:55.308Z,18.90
2022-12-08T20:33:26.104Z,21.90
2022-12-08T20:36:01.249Z,18.40
2022-12-08T20:38:32.229Z,15.88
2022-12-08T20:41:02.765Z,16.38
2022-12-08T20:43:33.448Z,19.00
2022-12-08T20:46:12.166Z,22.42
2022-12-08T20:48:43.832Z,25.98
2022-12-08T20:51:19.302Z,26.75
2022-12-08T20:53:49.702Z,28.73
2022-12-08T20:56:22.839Z,22.17
2022-12-08T20:58:54.273Z,24.80
2022-12-08T21:01:26.094Z,22.70
2022-12-08T21:03:56.748Z,20.25
2022-12-08T21:06:30.789Z,29.98
2022-12-08T21:09:01.580Z,24.55
2022-12-08T21:11:32.527Z,28.35
2022-12-08T21:14:04.822Z,29.08
2022-12-08T21:16:35.621Z,29.95
2022-12-08T21:19:06.937Z,29.02
2022-12-08T21:21:37.178Z,30.23
2022-12-08T21:24:08.421Z,27.90
2022-12-08T21:26:39.535Z,32.00
2022-12-08T21:29:18.352Z,25.48
2022-12-08T21:31:49.151Z,28.92
2022-12-08T21:34:19.510Z,28.08
2022-12-08T21:36:50.426Z,27.00
2022-12-08T21:39:21.066Z,31.67
2022-12-08T21:42:22.859Z,29.90
2022-12-08T21:44:53.983Z,27.48
2022-12-08T21:47:24.725Z,21.58
2022-12-08T21:49:56.027Z,32.38
2022-12-08T21:52:26.932Z,27.42
2022-12-08T21:54:57.749Z,26.20
2022-12-08T21:57:28.832Z,26.25
2022-12-08T21:59:59.634Z,25.88
2022-12-08T22:02:30.528Z,31.35
2022-12-08T22:05:01.524Z,23.67
2022-12-08T22:07:32.962Z,23.60
2022-12-08T22:10:03.913Z,26.58
2022-12-08T22:12:36.800Z,24.58
2022-12-08T22:15:09.069Z,28.15
2022-12-08T22:17:44.478Z,21.75
2022-12-08T22:20:16.377Z,25.20
2022-12-08T22:22:47.711Z,26.38
2022-12-08T22:25:18.415Z,31.83
2022-12-08T22:27:49.007Z,28.33
2022-12-08T22:30:19.486Z,29.63
2022-12-08T22:32:49.883Z,27.63
2022-12-08T22:35:20.395Z,25.05
2022-12-08T22:37:51.643Z,28.52
2022-12-08T22:40:22.414Z,33.17
2022-12-08T22:42:52.835Z,26.50
2022-12-08T22:45:24.834Z,37.28
2022-12-08T22:47:55.432Z,32.55
2022-12-08T22:50:26.470Z,36.40
2022-12-08T22:52:56.624Z,31.08
2022-12-08T22:55:27.503Z,32.75
2022-12-08T22:57:58.162Z,31.20
2022-12-08T23:00:29.390Z,30.95
2022-12-08T23:03:00.236Z,30.58
2022-12-08T23:05:35.108Z,34.78
2022-12-08T23:08:06.662Z,31.98
2022-12-08T23:10:37.676Z,33.50
2022-12-08T23:13:08.734Z,26.92
2022-12-08T23:15:40.511Z,31.98
2022-12-08T23:18:16.335Z,25.88
2022-12-08T23:20:47.679Z,26.35
2022-12-08T23:23:18.646Z,30.85
2022-12-08T23:25:49.019Z,28.98
2022-12-08T23:28:19.364Z,34.90
2022-12-08T23:30:49.953Z,35.00
2022-12-08T23:33:20.931Z,31.83
2022-12-08T23:35:59.215Z,30.90
2022-12-08T23:38:31.665Z,35.85
2022-12-08T23:41:06.543Z,39.38
2022-12-08T23:43:37.360Z,35.25
2022-12-08T23:46:08.515Z,45.13
2022-12-08T23:48:39.146Z,30.75
2022-12-08T23:51:09.793Z,37.80
2022-12-08T23:53:40.169Z,39.90
2022-12-08T23:56:17.014Z,35.85
2022-12-08T23:58:48.116Z,40.08
